Time;durP1;ratioP1;P1;durP2;ratioP2;P2;SDS_P1;SDS_P2;PMS_P1;PMS_P2;Temp;Humidity;BMP_temperature;BMP_pressure;BME280_temperature;BME280_humidity;BME280_pressure;Samples;Min_cycle;Max_cycle;Signal;HPM_P1;HPM_P2
2022/01/16 00:00:25;;;;;;;26.38;14.27;;;-1.00;99.90;;;;;;5002896;28;20396;-73
2022/01/16 00:05:30;;;;;;;27.60;13.75;;;-0.90;99.90;;;;;;4999826;28;20033;-73
2022/01/16 00:07:57;;;;;;;31.55;14.98;;;-1.00;99.90;;;;;;4996471;28;20084;-73
2022/01/16 00:10:25;;;;;;;30.58;15.95;;;-0.90;99.90;;;;;;4994647;28;20034;-73
2022/01/16 00:12:52;;;;;;;33.45;16.95;;;-1.00;99.90;;;;;;4999282;28;20503;-73
2022/01/16 00:15:22;;;;;;;31.25;15.50;;;-1.00;99.90;;;;;;5000600;28;20120;-72
2022/01/16 00:17:54;;;;;;;32.30;16.23;;;-1.00;99.90;;;;;;4999257;28;20104;-73
2022/01/16 00:20:22;;;;;;;35.90;17.52;;;-1.00;99.90;;;;;;5001884;28;20022;-73
2022/01/16 00:22:49;;;;;;;39.70;18.17;;;-1.10;99.90;;;;;;5005190;28;20117;-72
2022/01/16 00:25:15;;;;;;;33.00;17.02;;;-1.10;99.90;;;;;;4994313;28;20022;-73
2022/01/16 00:27:42;;;;;;;34.67;16.17;;;-0.90;99.90;;;;;;5000506;28;20082;-72
2022/01/16 00:30:08;;;;;;;35.05;17.63;;;-0.90;99.90;;;;;;5001197;28;20049;-72
2022/01/16 00:32:34;;;;;;;32.50;17.15;;;-1.10;99.90;;;;;;4999638;28;20022;-72
2022/01/16 00:34:59;;;;;;;32.78;16.58;;;-1.10;99.90;;;;;;4996338;28;20496;-72
2022/01/16 00:37:25;;;;;;;35.72;17.45;;;-1.10;99.90;;;;;;5001075;28;20025;-72
2022/01/16 00:39:51;;;;;;;37.05;17.48;;;-1.10;99.90;;;;;;5004520;28;20062;-72
2022/01/16 00:42:16;;;;;;;33.97;16.77;;;-1.00;99.90;;;;;;5006717;28;20022;-72
2022/01/16 00:44:42;;;;;;;34.53;17.35;;;-1.10;99.90;;;;;;5001585;28;20566;-72
2022/01/16 00:47:08;;;;;;;37.00;16.92;;;-1.20;99.90;;;;;;4996871;28;20406;-72
2022/01/16 00:49:36;;;;;;;33.65;16.77;;;-1.00;99.90;;;;;;4995199;28;20056;-72
2022/01/16 00:52:02;;;;;;;33.88;17.63;;;-1.10;99.90;;;;;;5000028;28;20026;-72
2022/01/16 00:54:28;;;;;;;36.80;16.77;;;-1.10;99.90;;;;;;5003228;28;20022;-72
2022/01/16 00:56:53;;;;;;;33.67;16.58;;;-1.00;99.90;;;;;;5000708;28;20488;-72
2022/01/16 00:59:19;;;;;;;37.22;17.52;;;-1.00;99.90;;;;;;5004717;28;20026;-72
2022/01/16 01:01:45;;;;;;;38.97;17.55;;;-1.10;99.90;;;;;;5008789;28;20442;-72
2022/01/16 01:04:11;;;;;;;37.50;17.95;;;-1.10;99.90;;;;;;4994256;28;20026;-72
2022/01/16 01:06:37;;;;;;;32.08;16.38;;;-1.10;99.90;;;;;;5003689;28;20032;-72
2022/01/16 01:09:03;;;;;;;33.65;16.27;;;-1.20;99.90;;;;;;5004067;28;20035;-72
2022/01/16 01:11:30;;;;;;;33.78;16.55;;;-1.20;99.90;;;;;;5002024;28;20072;-72
2022/01/16 01:16:38;;;;;;;36.42;17.10;;;-1.20;99.90;;;;;;5004379;28;20773;-72
2022/01/16 01:19:04;;;;;;;31.20;16.02;;;-1.20;99.90;;;;;;5004648;28;20026;-72
2022/01/16 01:21:31;;;;;;;30.77;15.98;;;-1.20;99.90;;;;;;5013097;28;20026;-72
2022/01/16 01:23:57;;;;;;;35.42;17.00;;;-1.20;99.90;;;;;;5002857;28;20042;-72
2022/01/16 01:26:28;;;;;;;33.60;15.85;;;-1.30;99.90;;;;;;5001479;28;20022;-72
2022/01/16 01:28:54;;;;;;;33.08;16.33;;;-1.40;99.90;;;;;;4999729;28;20022;-72
2022/01/16 01:31:20;;;;;;;29.30;15.75;;;-1.40;99.90;;;;;;5001160;28;20088;-72
2022/01/16 01:33:45;;;;;;;32.05;15.85;;;-1.30;99.90;;;;;;5006974;28;20062;-72
2022/01/16 01:36:11;;;;;;;38.33;17.35;;;-1.40;99.90;;;;;;5005881;28;20080;-72
2022/01/16 01:38:37;;;;;;;34.17;16.13;;;-1.40;99.90;;;;;;5004540;28;20495;-72
2022/01/16 01:41:02;;;;;;;42.38;17.85;;;-1.40;99.90;;;;;;5007284;28;20494;-72
2022/01/16 01:51:36;;;;;;;43.33;19.38;;;-1.50;99.90;;;;;;5031379;28;20058;-72
2022/01/16 01:54:04;;;;;;;42.95;19.13;;;-1.40;99.90;;;;;;5006459;28;20037;-72
2022/01/16 01:56:30;;;;;;;45.15;20.65;;;-1.50;99.90;;;;;;5002652;28;20100;-72
2022/01/16 01:58:58;;;;;;;40.22;18.58;;;-1.50;99.90;;;;;;5005494;28;20042;-72
2022/01/16 02:01:24;;;;;;;46.55;20.23;;;-1.50;99.90;;;;;;4995173;28;30353;-72
2022/01/16 02:03:50;;;;;;;44.95;20.45;;;-1.60;99.90;;;;;;5000116;28;20038;-72
2022/01/16 02:06:22;;;;;;;47.28;21.58;;;-1.60;99.90;;;;;;5004114;28;20027;-72
2022/01/16 02:08:51;;;;;;;45.78;20.13;;;-1.50;99.90;;;;;;5000896;28;20033;-72
2022/01/16 02:11:18;;;;;;;40.03;17.90;;;-1.50;99.90;;;;;;5000426;28;20018;-72
2022/01/16 02:36:31;;;;;;;32.30;16.58;;;-1.60;99.90;;;;;;4947888;29;20035;-72
2022/01/16 02:39:16;;;;;;;31.17;14.80;;;-1.60;99.90;;;;;;4942627;29;20027;-72
2022/01/16 02:41:44;;;;;;;28.02;13.82;;;-1.50;99.90;;;;;;4940643;29;20043;-72
2022/01/16 02:44:21;;;;;;;34.92;14.18;;;-1.60;99.90;;;;;;4938899;29;20031;-72
2022/01/16 02:46:47;;;;;;;31.10;13.88;;;-1.70;99.90;;;;;;4938821;29;20082;-72
2022/01/16 02:49:21;;;;;;;31.65;13.98;;;-1.70;99.90;;;;;;4940371;29;20031;-72
2022/01/16 02:51:47;;;;;;;31.70;14.23;;;-1.60;99.90;;;;;;4950653;29;20035;-72
2022/01/16 02:54:13;;;;;;;31.13;14.18;;;-1.70;99.90;;;;;;4993484;28;20030;-72
2022/01/16 02:56:39;;;;;;;32.42;14.02;;;-1.80;99.90;;;;;;5003850;28;20490;-72
2022/01/16 02:59:09;;;;;;;28.15;14.10;;;-1.80;99.90;;;;;;5005491;28;20076;-72
2022/01/16 03:01:34;;;;;;;30.50;14.07;;;-1.60;99.90;;;;;;4995168;28;20026;-72
2022/01/16 03:04:01;;;;;;;26.40;12.45;;;-1.70;99.90;;;;;;4999555;28;20381;-72
2022/01/16 03:06:27;;;;;;;27.88;13.98;;;-1.70;99.90;;;;;;5000153;28;20034;-71
2022/01/16 03:08:53;;;;;;;23.98;13.23;;;-1.70;99.90;;;;;;5003774;28;20034;-72
2022/01/16 03:11:34;;;;;;;22.15;11.23;;;-1.70;99.90;;;;;;4997343;28;20077;-72
2022/01/16 03:14:04;;;;;;;21.73;11.20;;;-1.70;99.90;;;;;;4997358;28;20522;-72
2022/01/16 03:16:30;;;;;;;22.90;12.07;;;-1.70;99.90;;;;;;4982398;28;20062;-71
2022/01/16 03:21:55;;;;;;;20.85;10.55;;;-1.80;99.90;;;;;;4997990;28;20128;-72
2022/01/16 03:24:24;;;;;;;21.17;10.63;;;-1.90;99.90;;;;;;5002661;28;20038;-72
2022/01/16 03:27:00;;;;;;;22.38;10.48;;;-1.90;99.90;;;;;;5004829;28;20030;-72
2022/01/16 03:29:28;;;;;;;22.38;10.68;;;-1.90;99.90;;;;;;4992233;28;20083;-72
2022/01/16 03:31:55;;;;;;;20.08;10.75;;;-1.90;99.90;;;;;;5001211;28;20109;-72
2022/01/16 03:34:21;;;;;;;18.67;9.75;;;-1.80;99.90;;;;;;5000890;28;20076;-72
2022/01/16 03:36:47;;;;;;;19.38;9.45;;;-1.90;99.90;;;;;;5009699;28;20033;-72
2022/01/16 03:39:13;;;;;;;17.55;9.18;;;-1.90;99.90;;;;;;4994824;28;20492;-71
2022/01/16 03:41:39;;;;;;;20.52;8.80;;;-2.00;99.90;;;;;;5000357;28;20030;-72
2022/01/16 03:44:06;;;;;;;16.52;9.27;;;-1.90;99.90;;;;;;4996898;28;20105;-72
2022/01/16 03:46:35;;;;;;;18.70;9.52;;;-2.00;99.90;;;;;;4998549;28;20034;-72
2022/01/16 03:49:06;;;;;;;18.33;9.60;;;-2.00;99.90;;;;;;4999053;28;20026;-72
2022/01/16 03:51:33;;;;;;;;;;;-1.90;99.90;;;;;;5004634;28;20022;-72
2022/01/16 03:53:59;;;;;;;18.25;9.65;;;-1.90;99.90;;;;;;5001041;28;20014;-72
2022/01/16 03:56:24;;;;;;;16.98;8.48;;;-2.00;99.90;;;;;;5002793;28;20215;-72
2022/01/16 03:58:50;;;;;;;15.85;8.95;;;-2.00;99.90;;;;;;4992350;28;20536;-72
2022/01/16 04:01:16;;;;;;;15.88;8.32;;;-2.00;99.90;;;;;;4995793;28;20034;-73
2022/01/16 04:03:42;;;;;;;14.18;7.82;;;-2.00;99.90;;;;;;4997269;28;20484;-72
2022/01/16 04:06:07;;;;;;;12.95;7.68;;;-2.00;99.90;;;;;;5003214;28;20033;-72
2022/01/16 04:08:33;;;;;;;16.17;8.48;;;-2.10;99.90;;;;;;4998869;28;20449;-72
2022/01/16 04:11:00;;;;;;;17.02;9.35;;;-2.00;99.90;;;;;;4998656;28;20026;-72
2022/01/16 04:13:25;;;;;;;12.73;7.70;;;-2.10;99.90;;;;;;4999378;28;20068;-72
2022/01/16 04:15:51;;;;;;;15.52;7.75;;;-2.10;99.90;;;;;;5007420;28;20506;-72
2022/01/16 04:18:17;;;;;;;11.45;7.03;;;-2.10;99.90;;;;;;4998008;28;20484;-72
2022/01/16 04:20:42;;;;;;;14.90;8.00;;;-2.10;99.90;;;;;;5000103;28;20509;-72
2022/01/16 04:23:11;;;;;;;13.18;7.72;;;-2.10;99.90;;;;;;4993985;28;20028;-72
2022/01/16 04:25:37;;;;;;;15.43;7.93;;;-2.00;99.90;;;;;;4996558;28;20459;-72
2022/01/16 04:28:04;;;;;;;13.85;7.72;;;-2.00;99.90;;;;;;5000859;28;20101;-72
2022/01/16 04:30:31;;;;;;;15.75;6.90;;;-2.10;99.90;;;;;;5002760;28;20021;-72
2022/01/16 04:32:56;;;;;;;14.50;8.05;;;-2.10;99.90;;;;;;5003928;28;20097;-72
2022/01/16 04:35:23;;;;;;;17.48;7.50;;;-2.00;99.90;;;;;;5005702;28;20555;-72
2022/01/16 04:37:49;;;;;;;12.93;7.45;;;-2.10;99.90;;;;;;4997802;28;20022;-72
2022/01/16 04:40:16;;;;;;;14.00;7.07;;;-2.10;99.90;;;;;;4998213;28;20077;-72
2022/01/16 04:45:26;;;;;;;10.65;6.90;;;-2.10;99.90;;;;;;5005145;28;20578;-72
2022/01/16 04:47:52;;;;;;;10.55;6.45;;;-2.10;99.90;;;;;;5007242;28;20042;-72
2022/01/16 04:50:21;;;;;;;12.75;7.13;;;-2.10;99.90;;;;;;5002379;28;20094;-73
2022/01/16 04:52:48;;;;;;;12.02;6.70;;;-2.10;99.90;;;;;;5006373;28;20034;-74
2022/01/16 04:55:15;;;;;;;10.98;6.43;;;-2.10;99.90;;;;;;5005633;28;20085;-74
2022/01/16 04:57:41;;;;;;;12.60;6.88;;;-2.10;99.90;;;;;;5002493;28;20018;-74
2022/01/16 05:00:13;;;;;;;12.93;6.63;;;-2.20;99.90;;;;;;5003368;28;20026;-74
2022/01/16 05:02:39;;;;;;;9.82;6.05;;;-2.10;99.90;;;;;;5004559;28;20507;-74
2022/01/16 05:05:05;;;;;;;11.73;5.97;;;-2.10;99.90;;;;;;4998410;28;20053;-74
2022/01/16 05:07:30;;;;;;;10.88;6.20;;;-2.20;99.90;;;;;;5002769;28;20029;-74
2022/01/16 05:09:56;;;;;;;11.07;5.93;;;-2.20;99.90;;;;;;5003382;28;20400;-74
2022/01/16 05:12:33;;;;;;;15.85;7.10;;;-2.30;99.90;;;;;;5004119;28;20061;-72
2022/01/16 05:17:44;;;;;;;11.57;6.13;;;-2.30;99.90;;;;;;5005480;28;20157;-74
2022/01/16 05:20:10;;;;;;;12.85;6.43;;;-2.40;99.90;;;;;;5000176;28;20029;-74
2022/01/16 05:22:36;;;;;;;9.85;6.38;;;-2.30;99.90;;;;;;5000448;28;20030;-74
2022/01/16 05:25:07;;;;;;;12.50;7.30;;;-2.30;99.90;;;;;;5003607;28;20076;-74
2022/01/16 05:27:34;;;;;;;10.30;6.10;;;-2.20;99.90;;;;;;5006674;28;20057;-74
2022/01/16 05:29:59;;;;;;;10.60;6.90;;;-2.30;99.90;;;;;;5004829;28;20017;-74
2022/01/16 05:32:25;;;;;;;12.88;6.35;;;-2.30;99.90;;;;;;5005071;28;20404;-74
2022/01/16 05:34:51;;;;;;;12.18;6.97;;;-2.30;99.90;;;;;;5008336;28;20006;-74
2022/01/16 05:37:16;;;;;;;12.70;6.68;;;-2.40;99.90;;;;;;4997204;28;20550;-74
2022/01/16 05:39:44;;;;;;;11.98;6.45;;;-2.40;99.90;;;;;;4999973;28;20248;-74
2022/01/16 05:42:12;;;;;;;14.27;6.57;;;-2.40;99.90;;;;;;5003165;28;20042;-74
2022/01/16 05:44:38;;;;;;;14.25;6.72;;;-2.50;99.90;;;;;;5002231;28;20092;-74
2022/01/16 05:47:05;;;;;;;10.85;6.38;;;-2.50;99.90;;;;;;4999331;28;20513;-74
2022/01/16 05:49:30;;;;;;;13.80;6.95;;;-2.40;99.90;;;;;;5004733;28;20061;-74
2022/01/16 05:51:56;;;;;;;12.48;7.25;;;-2.40;99.90;;;;;;5007991;28;20054;-73
2022/01/16 05:54:22;;;;;;;14.15;7.45;;;-2.40;99.90;;;;;;4997250;28;20080;-74
2022/01/16 05:56:47;;;;;;;14.50;7.18;;;-2.40;99.90;;;;;;5000624;28;20030;-74
2022/01/16 05:59:13;;;;;;;14.05;7.55;;;-2.40;99.90;;;;;;4995496;28;20050;-74
2022/01/16 06:01:39;;;;;;;14.32;7.57;;;-2.40;99.90;;;;;;5000075;28;20033;-74
2022/01/16 06:04:04;;;;;;;14.20;7.28;;;-2.40;99.90;;;;;;5002888;28;20030;-74
2022/01/16 06:06:30;;;;;;;12.48;6.75;;;-2.40;99.90;;;;;;5007107;28;20090;-74
2022/01/16 06:08:56;;;;;;;13.82;7.57;;;-2.40;99.90;;;;;;5001294;28;20044;-74
2022/01/16 06:11:21;;;;;;;12.70;6.60;;;-2.50;99.90;;;;;;5003645;28;20101;-74
2022/01/16 06:13:47;;;;;;;12.57;7.07;;;-2.50;99.90;;;;;;5003440;28;20411;-74
2022/01/16 06:16:13;;;;;;;12.77;6.72;;;-2.50;99.90;;;;;;4996249;28;20037;-74
2022/01/16 06:18:38;;;;;;;12.55;6.47;;;-2.50;99.90;;;;;;5002557;28;20030;-74
2022/01/16 06:21:05;;;;;;;11.50;6.60;;;-2.50;99.90;;;;;;5004072;28;20419;-74
2022/01/16 06:23:30;;;;;;;12.68;6.43;;;-2.40;99.90;;;;;;5000314;28;20626;-72
2022/01/16 06:25:56;;;;;;;14.68;7.03;;;-2.40;99.90;;;;;;4998745;28;20113;-72
2022/01/16 06:28:28;;;;;;;10.63;5.95;;;-2.40;99.90;;;;;;5002495;28;20038;-72
2022/01/16 06:30:54;;;;;;;;;;;-2.50;99.90;;;;;;5007249;28;20057;-72
2022/01/16 06:33:19;;;;;;;8.85;5.18;;;-2.50;99.90;;;;;;4999447;28;20421;-73
2022/01/16 06:35:45;;;;;;;11.20;5.55;;;-2.40;99.90;;;;;;5001023;28;20573;-73
2022/01/16 06:38:11;;;;;;;10.85;6.20;;;-2.40;99.90;;;;;;4999541;28;20502;-72
2022/01/16 06:40:37;;;;;;;9.40;5.80;;;-2.40;99.90;;;;;;4995473;28;20046;-74
2022/01/16 06:43:06;;;;;;;13.40;7.95;;;-2.40;99.90;;;;;;5001916;28;20088;-72
2022/01/16 06:45:31;;;;;;;12.20;6.55;;;-2.40;99.90;;;;;;5006749;28;20121;-74
2022/01/16 06:47:57;;;;;;;10.18;5.80;;;-2.40;99.90;;;;;;5003156;28;20176;-74
2022/01/16 06:50:23;;;;;;;11.52;5.88;;;-2.40;99.90;;;;;;5004316;28;20060;-74
2022/01/16 06:52:48;;;;;;;12.65;6.20;;;-2.40;99.90;;;;;;5004853;28;20029;-74
2022/01/16 06:55:14;;;;;;;11.40;5.40;;;-2.50;99.90;;;;;;4991270;28;20034;-74
2022/01/16 06:57:40;;;;;;;11.23;5.88;;;-2.50;99.90;;;;;;5002245;28;20093;-74
2022/01/16 07:00:07;;;;;;;12.60;7.18;;;-2.50;99.90;;;;;;5003071;28;20418;-74
2022/01/16 07:02:33;;;;;;;9.80;5.78;;;-2.50;99.90;;;;;;4999598;28;20040;-74
2022/01/16 07:04:59;;;;;;;10.15;6.10;;;-2.50;99.90;;;;;;4998256;28;20117;-74
2022/01/16 07:07:24;;;;;;;11.35;5.93;;;-2.50;99.90;;;;;;5001401;28;20042;-74
2022/01/16 07:09:50;;;;;;;14.52;6.70;;;-2.50;99.90;;;;;;5005930;28;20613;-74
2022/01/16 07:12:16;;;;;;;11.32;5.70;;;-2.60;99.90;;;;;;4996879;28;20026;-74
2022/01/16 07:14:43;;;;;;;11.63;5.70;;;-2.50;99.90;;;;;;4999727;28;20033;-74
2022/01/16 07:17:09;;;;;;;9.75;5.63;;;-2.60;99.90;;;;;;4998783;28;20090;-73
2022/01/16 07:19:34;;;;;;;10.82;5.60;;;-2.50;99.90;;;;;;4998163;28;20026;-74
2022/01/16 07:22:00;;;;;;;13.07;6.88;;;-2.50;99.90;;;;;;4999241;28;20053;-74
2022/01/16 07:24:26;;;;;;;10.15;5.40;;;-2.50;99.90;;;;;;5004115;28;20050;-74
2022/01/16 07:26:54;;;;;;;10.07;6.05;;;-2.60;99.90;;;;;;5001841;28;20065;-74
2022/01/16 07:29:20;;;;;;;13.25;5.45;;;-2.50;99.90;;;;;;5001562;28;20566;-73
2022/01/16 07:31:45;;;;;;;9.75;5.40;;;-2.50;99.90;;;;;;5004026;28;20109;-74
2022/01/16 07:34:11;;;;;;;8.25;5.07;;;-2.50;99.90;;;;;;4993417;28;20025;-73
2022/01/16 07:36:39;;;;;;;11.10;6.07;;;-2.40;99.90;;;;;;5001520;28;20492;-74
2022/01/16 07:39:04;;;;;;;11.02;6.07;;;-2.40;99.90;;;;;;4994105;28;20031;-73
2022/01/16 07:41:30;;;;;;;10.13;6.03;;;-2.50;99.90;;;;;;4991611;28;20063;-74
2022/01/16 07:43:56;;;;;;;10.13;5.90;;;-2.40;99.90;;;;;;4996630;28;20546;-74
2022/01/16 07:46:22;;;;;;;9.45;5.20;;;-2.40;99.90;;;;;;5000567;28;20034;-74
2022/01/16 07:48:48;;;;;;;9.40;5.10;;;-2.50;99.90;;;;;;5006103;28;20036;-74
2022/01/16 07:51:14;;;;;;;11.75;6.15;;;-2.40;99.90;;;;;;4997717;28;20022;-74
2022/01/16 07:53:39;;;;;;;9.07;5.20;;;-2.30;99.90;;;;;;4993110;28;20018;-75
2022/01/16 07:56:05;;;;;;;10.02;5.38;;;-2.20;99.90;;;;;;4995091;28;20097;-74
2022/01/16 07:58:31;;;;;;;8.48;5.18;;;-2.10;99.90;;;;;;4995396;28;20500;-74
2022/01/16 08:00:57;;;;;;;8.90;5.20;;;-1.90;99.90;;;;;;5002383;28;20023;-74
2022/01/16 08:03:23;;;;;;;7.80;5.00;;;-1.90;99.90;;;;;;5004500;28;20519;-75
2022/01/16 08:05:49;;;;;;;8.40;5.53;;;-0.50;99.90;;;;;;5000473;28;20026;-74
2022/01/16 08:08:14;;;;;;;7.47;4.80;;;0.50;99.90;;;;;;5002057;28;20067;-75
2022/01/16 08:10:41;;;;;;;8.52;5.10;;;1.20;99.90;;;;;;4999611;28;20033;-74
2022/01/16 08:13:06;;;;;;;10.88;6.22;;;1.10;99.90;;;;;;4991982;28;20069;-74
2022/01/16 08:15:33;;;;;;;8.80;5.07;;;0.30;99.90;;;;;;4994165;28;20535;-74
2022/01/16 08:17:59;;;;;;;12.55;5.85;;;-0.40;99.90;;;;;;4988690;28;20023;-74
2022/01/16 08:20:25;;;;;;;8.85;5.90;;;-0.50;99.90;;;;;;4992867;28;20042;-74
2022/01/16 08:22:50;;;;;;;11.55;5.78;;;-0.30;99.90;;;;;;4989392;28;20120;-75
2022/01/16 08:25:16;;;;;;;12.00;6.28;;;-0.10;99.90;;;;;;4990249;28;20030;-74
2022/01/16 08:27:42;;;;;;;12.38;6.30;;;-0.40;99.90;;;;;;4992312;28;20117;-74
2022/01/16 08:30:09;;;;;;;12.20;6.10;;;-0.30;99.90;;;;;;4991799;28;20054;-74
2022/01/16 08:32:35;;;;;;;9.32;6.32;;;0.60;99.90;;;;;;4991576;28;20479;-74
2022/01/16 08:35:01;;;;;;;16.23;7.32;;;0.70;99.90;;;;;;4989409;28;20036;-74
2022/01/16 08:37:27;;;;;;;10.95;6.32;;;1.20;99.90;;;;;;4992034;28;20034;-74
2022/01/16 08:39:52;;;;;;;14.75;7.18;;;0.90;99.90;;;;;;4991527;28;20133;-75
2022/01/16 08:42:18;;;;;;;14.35;8.57;;;0.70;99.90;;;;;;4991975;28;20161;-74
2022/01/16 08:44:44;;;;;;;14.63;8.15;;;0.90;99.90;;;;;;4992980;28;20403;-75
2022/01/16 08:47:10;;;;;;;18.00;8.65;;;0.50;99.90;;;;;;4990145;28;20491;-75
2022/01/16 08:49:36;;;;;;;15.18;8.25;;;1.30;99.90;;;;;;5002521;28;20030;-74
2022/01/16 08:52:03;;;;;;;15.10;7.75;;;3.80;99.90;;;;;;4994279;28;20018;-74
2022/01/16 08:54:29;;;;;;;14.90;8.23;;;3.40;99.90;;;;;;4997473;28;20030;-72
2022/01/16 08:56:55;;;;;;;11.85;6.95;;;2.70;99.90;;;;;;4999830;28;20454;-72
2022/01/16 08:59:21;;;;;;;16.08;7.90;;;3.90;99.90;;;;;;4998385;28;20026;-74
2022/01/16 09:01:46;;;;;;;14.27;7.55;;;4.50;98.60;;;;;;4998359;28;20025;-74
2022/01/16 09:04:12;;;;;;;13.63;7.50;;;3.10;99.90;;;;;;5000833;28;20026;-74
2022/01/16 09:06:38;;;;;;;16.33;7.80;;;2.10;99.90;;;;;;5004629;28;20026;-75
2022/01/16 09:09:04;;;;;;;14.75;7.97;;;2.40;99.90;;;;;;5003369;28;20100;-74
2022/01/16 09:11:30;;;;;;;14.68;7.32;;;2.80;99.90;;;;;;5001999;28;20108;-74
2022/01/16 09:13:58;;;;;;;14.85;7.53;;;3.20;99.90;;;;;;4995107;28;20022;-74
2022/01/16 09:16:24;;;;;;;13.88;8.00;;;3.20;99.90;;;;;;4993683;28;20176;-74
2022/01/16 09:18:50;;;;;;;15.63;7.28;;;5.30;99.90;;;;;;5000381;28;20500;-74
2022/01/16 09:21:17;;;;;;;14.20;8.02;;;7.30;96.40;;;;;;5004645;28;20081;-74
2022/01/16 09:23:47;;;;;;;13.57;7.80;;;8.70;93.80;;;;;;4997733;28;20407;-74
2022/01/16 09:26:14;;;;;;;13.87;8.37;;;8.30;93.40;;;;;;4998595;28;20033;-72
2022/01/16 09:28:44;;;;;;;16.98;9.05;;;6.00;95.60;;;;;;5002608;28;20032;-73
2022/01/16 09:31:10;;;;;;;14.77;8.23;;;6.30;96.90;;;;;;5002986;28;20026;-73
2022/01/16 09:33:36;;;;;;;14.05;7.43;;;6.70;95.20;;;;;;4999252;28;20538;-73
2022/01/16 09:36:04;;;;;;;15.45;7.72;;;4.30;98.10;;;;;;4992270;28;20026;-72
2022/01/16 09:38:30;;;;;;;15.60;7.70;;;3.50;99.90;;;;;;5001230;28;20044;-74
2022/01/16 09:40:56;;;;;;;14.23;7.45;;;3.00;99.90;;;;;;4999528;28;20093;-73
2022/01/16 09:43:22;;;;;;;14.20;7.88;;;2.70;99.90;;;;;;5001827;28;20360;-73
2022/01/16 09:45:48;;;;;;;15.98;7.93;;;2.60;99.90;;;;;;5005116;28;20544;-73
2022/01/16 09:48:16;;;;;;;12.48;6.68;;;2.30;99.90;;;;;;4993992;28;20496;-73
2022/01/16 09:50:42;;;;;;;15.98;7.65;;;2.50;99.90;;;;;;4996771;28;20056;-73
2022/01/16 09:53:08;;;;;;;14.18;7.53;;;2.30;99.90;;;;;;4995434;28;20464;-73
2022/01/16 09:55:34;;;;;;;13.10;7.07;;;2.30;99.90;;;;;;4998322;28;20403;-73
2022/01/16 09:58:00;;;;;;;13.15;7.65;;;2.30;99.90;;;;;;4996518;28;20018;-73
2022/01/16 10:00:27;;;;;;;13.55;6.63;;;2.20;99.90;;;;;;5003486;28;20034;-73
2022/01/16 10:02:54;;;;;;;10.23;6.18;;;2.10;99.90;;;;;;5003707;28;20026;-73
2022/01/16 10:05:34;;;;;;;12.10;6.88;;;1.90;99.90;;;;;;5003843;28;20106;-73
2022/01/16 10:08:08;;;;;;;10.57;6.47;;;1.80;99.90;;;;;;5007360;28;20022;-73
2022/01/16 10:10:38;;;;;;;11.18;6.72;;;1.90;99.90;;;;;;4994853;28;20538;-73
2022/01/16 10:13:37;;;;;;;10.98;6.40;;;1.80;99.90;;;;;;4998782;28;20026;-73
2022/01/16 10:16:03;;;;;;;11.38;6.90;;;2.10;99.90;;;;;;4998229;28;20034;-73
2022/01/16 10:18:46;;;;;;;13.25;6.60;;;2.20;99.90;;;;;;5004516;28;20061;-74
2022/01/16 10:21:31;;;;;;;15.68;6.38;;;2.20;99.90;;;;;;4999269;28;20037;-73
2022/01/16 10:23:57;;;;;;;12.93;7.13;;;2.40;99.90;;;;;;5002698;28;20022;-74
2022/01/16 10:26:23;;;;;;;10.63;6.88;;;2.40;99.90;;;;;;5002602;28;20026;-74
2022/01/16 10:28:51;;;;;;;12.07;6.72;;;2.30;99.90;;;;;;4997042;28;20022;-74
2022/01/16 10:31:22;;;;;;;11.88;7.05;;;2.30;99.90;;;;;;4995440;28;20030;-74
2022/01/16 10:33:49;;;;;;;12.05;7.57;;;2.30;99.90;;;;;;5003080;28;20026;-74
2022/01/16 10:36:39;;;;;;;13.02;7.70;;;2.40;99.90;;;;;;5004348;28;20022;-74
2022/01/16 10:39:12;;;;;;;12.52;7.68;;;2.40;99.90;;;;;;5006358;28;20069;-74
2022/01/16 10:41:38;;;;;;;12.90;7.50;;;2.50;99.90;;;;;;4993744;28;20034;-74
2022/01/16 10:44:24;;;;;;;11.85;7.32;;;2.50;99.90;;;;;;5004910;28;20025;-73
2022/01/16 10:46:49;;;;;;;11.40;7.13;;;2.40;99.90;;;;;;4983416;28;20033;-74
2022/01/16 10:49:17;;;;;;;11.30;6.50;;;2.40;99.90;;;;;;4995623;28;20034;-73
2022/01/16 10:52:05;;;;;;;12.27;6.95;;;2.40;99.90;;;;;;5002227;28;20109;-73
2022/01/16 10:54:37;;;;;;;12.43;7.65;;;2.50;99.90;;;;;;5002029;28;20173;-74
2022/01/16 10:57:26;;;;;;;11.90;6.72;;;2.60;99.90;;;;;;5005222;28;20021;-73
2022/01/16 11:00:08;;;;;;;12.02;6.75;;;2.80;99.90;;;;;;4994962;28;20026;-74
2022/01/16 11:02:33;;;;;;;11.15;7.97;;;2.70;99.90;;;;;;5001962;28;20132;-73
2022/01/16 11:05:07;;;;;;;14.30;7.90;;;2.90;99.90;;;;;;5005447;28;20573;-74
2022/01/16 11:07:33;;;;;;;14.52;7.38;;;2.80;99.90;;;;;;4993105;28;20022;-73
2022/01/16 11:10:00;;;;;;;13.70;7.93;;;2.80;99.90;;;;;;4997527;28;20073;-73
2022/01/16 11:12:26;;;;;;;12.93;7.70;;;2.90;99.90;;;;;;4986668;28;20031;-73
2022/01/16 11:14:52;;;;;;;16.15;9.32;;;3.10;99.90;;;;;;4989854;28;20089;-73
2022/01/16 11:17:18;;;;;;;14.75;8.57;;;3.20;99.90;;;;;;4991654;28;20030;-73
2022/01/16 11:19:44;;;;;;;17.15;8.73;;;3.10;99.90;;;;;;4994897;28;20026;-73
2022/01/16 11:22:12;;;;;;;14.65;7.82;;;3.00;99.90;;;;;;4995142;28;20018;-73
2022/01/16 11:25:00;;;;;;;13.30;8.10;;;3.20;99.90;;;;;;5000818;28;20073;-73
2022/01/16 11:27:26;;;;;;;14.40;8.25;;;3.30;99.90;;;;;;4992770;28;20580;-72
2022/01/16 11:29:52;;;;;;;14.73;7.65;;;3.30;99.90;;;;;;4994402;28;20053;-74
2022/01/16 11:32:19;;;;;;;15.35;8.15;;;3.20;99.90;;;;;;4993311;28;20491;-73
2022/01/16 11:34:45;;;;;;;15.05;8.38;;;3.30;99.90;;;;;;4988722;28;20018;-73
2022/01/16 11:37:12;;;;;;;11.82;7.88;;;3.40;99.90;;;;;;4988821;28;20026;-73
2022/01/16 11:39:39;;;;;;;17.08;7.45;;;3.30;99.90;;;;;;4990518;28;20050;-73
2022/01/16 11:42:15;;;;;;;12.13;7.90;;;3.60;99.90;;;;;;5001329;28;20068;-74
2022/01/16 11:44:51;;;;;;;11.63;7.63;;;3.60;99.90;;;;;;4996439;28;20559;-74
2022/01/16 11:47:17;;;;;;;13.45;8.00;;;3.50;99.90;;;;;;4993424;28;20062;-74
2022/01/16 11:49:42;;;;;;;13.68;7.95;;;3.40;99.90;;;;;;4993703;28;20100;-74
2022/01/16 11:52:15;;;;;;;15.90;9.02;;;3.70;99.90;;;;;;4997201;28;20492;-74
2022/01/16 11:54:49;;;;;;;14.75;9.13;;;4.30;99.90;;;;;;5000602;28;20104;-74
2022/01/16 11:57:56;;;;;;;14.48;8.60;;;4.10;99.90;;;;;;4983382;28;20095;-75
2022/01/16 12:00:22;;;;;;;14.35;8.98;;;3.70;99.90;;;;;;4999605;28;20095;-74
2022/01/16 12:02:50;;;;;;;15.50;7.78;;;3.60;99.90;;;;;;5002215;28;20495;-74
2022/01/16 12:05:24;;;;;;;15.80;7.80;;;3.70;99.90;;;;;;5004644;28;20029;-74
2022/01/16 12:07:52;;;;;;;12.48;7.80;;;3.70;99.90;;;;;;4983332;28;20056;-74
2022/01/16 12:10:37;;;;;;;12.07;7.10;;;3.70;99.90;;;;;;4993892;28;20026;-73
2022/01/16 12:13:03;;;;;;;12.00;7.03;;;4.00;99.90;;;;;;4988691;28;20023;-74
2022/01/16 12:15:29;;;;;;;12.05;6.80;;;4.00;99.90;;;;;;4989003;28;20072;-74
2022/01/16 12:17:54;;;;;;;12.43;7.20;;;3.80;99.90;;;;;;4999217;28;20526;-74
2022/01/16 12:20:26;;;;;;;10.52;6.50;;;3.80;99.90;;;;;;4998170;28;20019;-74
2022/01/16 12:22:58;;;;;;;12.70;6.30;;;3.90;99.90;;;;;;5002931;28;20382;-74
2022/01/16 12:25:34;;;;;;;9.60;5.95;;;3.90;99.90;;;;;;4992021;28;20023;-74
2022/01/16 12:28:06;;;;;;;9.43;5.30;;;4.20;99.90;;;;;;4996558;28;20033;-74
2022/01/16 12:30:48;;;;;;;9.75;5.68;;;4.10;99.90;;;;;;4995902;28;20030;-74
2022/01/16 12:33:23;;;;;;;7.40;5.15;;;4.10;99.90;;;;;;5001736;28;20113;-74
2022/01/16 12:35:51;;;;;;;13.15;6.03;;;3.90;99.90;;;;;;5002604;28;20022;-74
2022/01/16 12:38:20;;;;;;;12.18;6.43;;;4.30;99.90;;;;;;4998594;28;20032;-75
2022/01/16 12:41:08;;;;;;;10.05;6.30;;;4.30;99.90;;;;;;5001816;28;20046;-76
2022/01/16 12:43:41;;;;;;;10.35;6.10;;;4.30;99.90;;;;;;4980107;28;20041;-75
2022/01/16 12:46:09;;;;;;;11.40;6.28;;;4.80;99.90;;;;;;4994815;28;20015;-76
2022/01/16 12:48:48;;;;;;;9.82;5.60;;;4.60;99.90;;;;;;4998810;28;20101;-75
2022/01/16 12:51:15;;;;;;;9.00;5.32;;;4.50;99.90;;;;;;5001123;28;20031;-76
2022/01/16 12:53:46;;;;;;;9.70;6.25;;;4.50;99.90;;;;;;4996721;28;20032;-75
2022/01/16 12:56:26;;;;;;;;;;;4.60;99.90;;;;;;5000317;28;20023;-75
2022/01/16 12:58:56;;;;;;;10.75;6.68;;;4.60;99.90;;;;;;5006322;28;20012;-75
2022/01/16 13:01:23;;;;;;;11.95;6.45;;;4.80;99.90;;;;;;4993477;28;20022;-77
2022/01/16 13:03:49;;;;;;;13.98;6.38;;;4.60;99.90;;;;;;4999472;28;20076;-77
2022/01/16 13:06:26;;;;;;;13.70;6.63;;;4.80;99.90;;;;;;5001632;28;20034;-76
2022/01/16 13:09:08;;;;;;;11.35;7.13;;;4.90;99.90;;;;;;5001458;28;20049;-76
2022/01/16 13:11:46;;;;;;;11.38;6.05;;;4.80;99.90;;;;;;5002168;28;20022;-75
2022/01/16 13:14:14;;;;;;;14.23;6.68;;;4.80;99.90;;;;;;4995909;28;20022;-77
2022/01/16 13:16:43;;;;;;;11.75;5.90;;;5.00;99.90;;;;;;5002572;28;20037;-77
2022/01/16 13:19:15;;;;;;;13.05;6.40;;;5.00;99.90;;;;;;5003069;28;20061;-73
2022/01/16 13:22:04;;;;;;;10.15;5.72;;;5.00;99.90;;;;;;5011024;28;20022;-75
2022/01/16 13:24:30;;;;;;;11.90;6.20;;;5.00;99.90;;;;;;4998680;28;20030;-75
2022/01/16 13:26:57;;;;;;;12.43;5.97;;;5.00;99.90;;;;;;5000805;28;20088;-74
2022/01/16 13:29:24;;;;;;;13.60;6.47;;;4.80;99.90;;;;;;4999340;28;20037;-74